createdAt,value
2023-03-07T00:01:24.052Z,41.34
2023-03-07T00:06:27.632Z,39.64
2023-03-07T00:11:33.390Z,39.75
2023-03-07T00:16:38.131Z,40.42
2023-03-07T00:21:44.484Z,42.28
2023-03-07T00:26:48.088Z,42.88
2023-03-07T00:31:52.856Z,41.73
2023-03-07T00:36:56.485Z,40.64
2023-03-07T00:42:02.060Z,35.21
2023-03-07T00:47:07.110Z,30.88
2023-03-07T00:52:13.864Z,31.01
2023-03-07T00:57:17.281Z,30.07
2023-03-07T01:02:23.061Z,27.93
2023-03-07T01:07:26.445Z,34.59
2023-03-07T01:12:30.187Z,26.51
2023-03-07T01:17:35.359Z,26.64
2023-03-07T01:22:41.717Z,26.84
2023-03-07T01:27:45.206Z,26.32
2023-03-07T01:32:55.119Z,26.81
2023-03-07T01:38:03.910Z,26.86
2023-03-07T01:43:27.913Z,25.93
2023-03-07T01:48:49.910Z,28.72
2023-03-07T01:53:58.235Z,28.85
2023-03-07T01:59:02.388Z,28.40
2023-03-07T02:04:12.471Z,26.82
2023-03-07T02:09:21.575Z,26.61
2023-03-07T02:14:25.121Z,25.84
2023-03-07T02:19:37.853Z,26.19
2023-03-07T02:24:46.207Z,26.90
2023-03-07T02:29:51.099Z,26.91
2023-03-07T02:34:54.626Z,27.54
2023-03-07T02:40:05.222Z,26.78
2023-03-07T02:45:14.760Z,27.09
2023-03-07T02:50:22.017Z,26.94
2023-03-07T02:55:28.817Z,27.48
2023-03-07T03:00:38.175Z,27.83
2023-03-07T03:05:43.917Z,28.26
2023-03-07T03:10:53.416Z,28.29
2023-03-07T03:16:00.406Z,29.14
2023-03-07T03:21:08.226Z,29.64
2023-03-07T03:26:12.015Z,31.29
2023-03-07T03:31:19.485Z,33.56
2023-03-07T03:36:26.661Z,34.11
2023-03-07T03:41:36.171Z,34.52
2023-03-07T03:46:41.539Z,33.80
2023-03-07T03:51:45.280Z,36.32
2023-03-07T03:56:48.718Z,40.12
2023-03-07T04:01:56.007Z,41.53
2023-03-07T04:06:59.781Z,43.99
2023-03-07T04:12:03.255Z,45.08
2023-03-07T04:17:08.175Z,49.28
2023-03-07T04:22:11.618Z,58.43
2023-03-07T04:27:15.303Z,59.54
2023-03-07T04:32:20.175Z,58.49
2023-03-07T04:37:25.084Z,64.59
2023-03-07T04:42:28.891Z,64.30
2023-03-07T04:47:35.956Z,64.07
2023-03-07T04:52:39.775Z,65.25
2023-03-07T04:57:43.329Z,64.75
2023-03-07T05:02:48.693Z,62.28
2023-03-07T05:07:53.802Z,61.04
2023-03-07T05:12:57.309Z,62.59
2023-03-07T05:18:02.373Z,58.40
2023-03-07T05:23:06.013Z,54.81
2023-03-07T05:28:12.565Z,52.86
2023-03-07T05:33:17.635Z,62.38
2023-03-07T05:38:24.093Z,54.67
2023-03-07T05:43:27.617Z,50.21
2023-03-07T05:48:32.737Z,46.28
2023-03-07T05:53:36.162Z,48.30
2023-03-07T05:58:40.357Z,47.71
2023-03-07T06:03:45.346Z,44.27
2023-03-07T06:08:48.797Z,43.94
2023-03-07T06:13:54.309Z,43.37
2023-03-07T06:19:01.695Z,46.26
2023-03-07T06:24:05.765Z,44.35
2023-03-07T06:29:11.509Z,43.85
2023-03-07T06:34:16.523Z,46.17
2023-03-07T06:39:22.863Z,45.92
2023-03-07T06:44:29.982Z,47.85
2023-03-07T06:49:37.896Z,47.36
2023-03-07T06:54:41.319Z,42.80
2023-03-07T06:59:45.145Z,40.81
2023-03-07T07:04:52.670Z,44.80
2023-03-07T07:09:56.681Z,48.01
2023-03-07T07:15:02.267Z,49.17
2023-03-07T07:20:08.288Z,51.37
2023-03-07T07:25:12.268Z,52.99
2023-03-07T07:30:18.062Z,50.69
2023-03-07T07:35:25.167Z,50.87
2023-03-07T07:40:32.011Z,49.44
2023-03-07T07:45:35.565Z,49.96
2023-03-07T07:50:44.482Z,50.34
2023-03-07T07:55:49.085Z,57.38
2023-03-07T08:00:53.322Z,69.37
2023-03-07T08:05:58.056Z,51.63
2023-03-07T08:11:01.491Z,51.61
2023-03-07T08:16:09.834Z,51.42
2023-03-07T08:21:14.716Z,49.43
2023-03-07T08:26:18.680Z,48.31
2023-03-07T08:31:24.407Z,48.01
2023-03-07T08:36:29.289Z,48.87
2023-03-07T08:41:34.956Z,46.27
2023-03-07T08:46:38.426Z,45.17
2023-03-07T08:51:43.340Z,43.22
2023-03-07T08:56:49.027Z,41.57
2023-03-07T09:01:54.819Z,42.45
2023-03-07T09:07:01.534Z,42.69
2023-03-07T09:12:10.755Z,42.64
2023-03-07T09:17:16.941Z,43.22
2023-03-07T09:22:21.696Z,44.70
2023-03-07T09:27:25.506Z,46.81
2023-03-07T09:32:28.974Z,45.95
2023-03-07T09:37:33.756Z,47.03
2023-03-07T09:42:40.303Z,46.14
2023-03-07T09:48:10.112Z,46.68
2023-03-07T09:53:20.541Z,46.48
2023-03-07T09:58:27.559Z,44.14
2023-03-07T10:03:38.281Z,42.28
2023-03-07T10:08:43.277Z,41.67
2023-03-07T10:13:55.781Z,42.61
2023-03-07T10:19:06.084Z,43.61
2023-03-07T10:24:26.079Z,43.71
2023-03-07T10:29:33.766Z,44.29
2023-03-07T10:34:40.930Z,42.67
2023-03-07T10:39:52.040Z,42.04
2023-03-07T10:44:55.563Z,42.79
2023-03-07T10:50:09.057Z,42.03
2023-03-07T10:55:37.815Z,43.50
2023-03-07T11:00:41.591Z,42.79
2023-03-07T11:05:48.812Z,44.86
2023-03-07T11:10:53.545Z,45.15
2023-03-07T11:16:11.658Z,44.16
2023-03-07T11:21:28.683Z,45.75
2023-03-07T11:26:39.382Z,45.43
2023-03-07T11:31:52.205Z,44.52
2023-03-07T11:36:58.134Z,46.34
2023-03-07T11:42:06.317Z,47.54
2023-03-07T11:47:21.202Z,44.56
2023-03-07T11:52:37.032Z,44.63
2023-03-07T11:57:58.602Z,41.81
2023-03-07T12:03:17.392Z,40.15
2023-03-07T12:08:35.591Z,39.16
2023-03-07T12:13:47.598Z,39.13
2023-03-07T12:19:14.428Z,46.15
2023-03-07T12:24:23.707Z,39.80
2023-03-07T12:29:36.099Z,35.04
2023-03-07T12:34:42.279Z,34.71
2023-03-07T12:39:50.179Z,34.75
2023-03-07T12:44:59.288Z,105.44
2023-03-07T12:50:07.225Z,47.36
2023-03-07T12:55:19.721Z,36.78
2023-03-07T13:00:27.410Z,33.67
2023-03-07T13:05:33.358Z,32.58
2023-03-07T13:10:37.811Z,33.70
2023-03-07T13:16:03.076Z,33.79
2023-03-07T13:21:11.827Z,31.83
2023-03-07T13:26:25.057Z,31.78
2023-03-07T13:31:39.386Z,31.29
2023-03-07T13:36:42.865Z,31.17
2023-03-07T13:41:48.255Z,31.03
2023-03-07T13:47:01.350Z,29.88
2023-03-07T13:52:19.632Z,28.72
2023-03-07T13:57:30.962Z,30.29
2023-03-07T14:02:39.910Z,29.62
2023-03-07T14:07:43.661Z,28.30
2023-03-07T14:13:05.323Z,27.58
2023-03-07T14:18:22.486Z,27.13
2023-03-07T14:23:47.173Z,26.97
2023-03-07T14:28:51.539Z,25.89
2023-03-07T14:33:56.326Z,24.93
2023-03-07T14:39:02.262Z,24.76
2023-03-07T14:44:22.087Z,26.84
2023-03-07T14:49:36.336Z,24.63
2023-03-07T14:54:39.688Z,24.36
2023-03-07T14:59:43.098Z,24.46
2023-03-07T15:04:54.745Z,23.66
2023-03-07T15:09:58.203Z,24.63
2023-03-07T15:15:05.324Z,24.88
2023-03-07T15:20:18.986Z,23.82
2023-03-07T15:25:26.062Z,23.07
2023-03-07T15:30:31.769Z,24.87
2023-03-07T15:35:36.592Z,22.42
2023-03-07T15:40:40.034Z,21.86
2023-03-07T15:45:58.626Z,22.02
2023-03-07T15:51:06.479Z,21.58
2023-03-07T15:56:23.415Z,21.74
2023-03-07T16:01:29.120Z,45.50
2023-03-07T16:06:40.963Z,22.77
2023-03-07T16:11:47.302Z,23.09
2023-03-07T16:16:55.609Z,22.67
2023-03-07T16:22:02.789Z,22.72
2023-03-07T16:27:06.195Z,22.64
2023-03-07T16:32:12.027Z,23.20
2023-03-07T16:37:16.918Z,30.10
2023-03-07T16:42:24.100Z,33.72
2023-03-07T16:47:30.015Z,24.04
2023-03-07T16:52:37.768Z,24.69
2023-03-07T16:57:41.444Z,24.82
2023-03-07T17:02:45.514Z,23.71
2023-03-07T17:07:53.157Z,23.73
2023-03-07T17:12:58.545Z,24.53
2023-03-07T17:18:04.862Z,24.20
2023-03-07T17:23:09.670Z,51.29
2023-03-07T17:28:20.261Z,25.65
2023-03-07T17:33:27.162Z,24.89
2023-03-07T17:38:31.902Z,31.54
2023-03-07T17:43:35.335Z,27.05
2023-03-07T17:48:40.816Z,26.45
2023-03-07T17:53:45.528Z,65.55
2023-03-07T17:58:49.100Z,27.83
2023-03-07T18:03:52.475Z,27.04
2023-03-07T18:08:57.591Z,34.57
2023-03-07T18:14:08.695Z,26.13
2023-03-07T18:19:25.363Z,41.78
2023-03-07T18:24:30.973Z,32.56
2023-03-07T18:29:34.396Z,25.84
2023-03-07T18:34:42.437Z,25.32
2023-03-07T18:39:52.928Z,25.68
2023-03-07T18:44:56.479Z,26.86
2023-03-07T18:50:02.269Z,25.47
2023-03-07T18:55:09.754Z,26.06
2023-03-07T19:00:13.487Z,50.18
2023-03-07T19:05:16.885Z,32.41
2023-03-07T19:10:21.639Z,23.86
2023-03-07T19:15:25.041Z,22.92
2023-03-07T19:20:30.959Z,22.36
2023-03-07T19:25:37.417Z,21.70
2023-03-07T19:30:41.304Z,21.73
2023-03-07T19:35:44.889Z,31.65
2023-03-07T19:40:50.054Z,24.21
2023-03-07T19:45:55.350Z,20.68
2023-03-07T19:50:58.831Z,19.68
2023-03-07T19:56:10.478Z,19.73
2023-03-07T20:01:15.505Z,19.15
2023-03-07T20:06:20.219Z,19.14
2023-03-07T20:11:27.331Z,18.58
2023-03-07T20:16:31.038Z,19.32
2023-03-07T20:21:35.802Z,18.16
2023-03-07T20:26:40.805Z,18.06
2023-03-07T20:31:44.427Z,17.84
2023-03-07T20:36:51.083Z,17.47
2023-03-07T20:49:28.132Z,18.56
2023-03-07T21:08:49.178Z,16.23
2023-03-07T21:13:54.892Z,16.44
2023-03-07T21:19:06.423Z,16.87
2023-03-07T21:24:13.045Z,15.96
2023-03-07T21:29:16.577Z,25.25
2023-03-07T21:34:21.357Z,16.17
2023-03-07T21:39:25.180Z,15.21
2023-03-07T21:44:28.632Z,15.87
2023-03-07T21:49:34.059Z,15.01
2023-03-07T21:54:38.146Z,14.62
2023-03-07T21:59:41.564Z,15.37
2023-03-07T22:04:48.834Z,15.19
2023-03-07T22:09:54.587Z,14.87
2023-03-07T22:14:57.956Z,14.44
2023-03-07T22:20:02.930Z,16.64
2023-03-07T22:25:06.734Z,14.31
2023-03-07T22:30:10.883Z,14.75
2023-03-07T22:35:15.719Z,23.61
2023-03-07T22:40:22.672Z,9.62
2023-03-07T22:45:26.105Z,8.06
2023-03-07T22:50:30.993Z,5.67
2023-03-07T22:55:34.367Z,3.62
2023-03-07T23:00:43.629Z,5.88
2023-03-07T23:05:50.830Z,3.76
2023-03-07T23:11:00.180Z,3.41
2023-03-07T23:16:05.252Z,3.05
2023-03-07T23:21:13.978Z,3.11
2023-03-07T23:26:18.626Z,3.22
2023-03-07T23:31:24.128Z,3.19
2023-03-07T23:36:30.799Z,3.04
2023-03-07T23:41:34.196Z,3.36
2023-03-07T23:46:42.475Z,3.01
2023-03-07T23:51:47.374Z,3.09
2023-03-07T23:56:51.744Z,2.83
